createdAt,value
2023-04-26T00:00:06.159Z,9.28
2023-04-26T00:00:16.923Z,9.28
2023-04-26T00:00:27.986Z,9.24
2023-04-26T00:00:38.935Z,9.25
2023-04-26T00:00:49.706Z,9.25
2023-04-26T00:01:00.809Z,9.25
2023-04-26T00:01:11.759Z,9.25
2023-04-26T00:01:22.518Z,9.25
2023-04-26T00:01:33.581Z,9.23
2023-04-26T00:01:44.546Z,9.23
2023-04-26T00:01:55.304Z,9.24
2023-04-26T00:02:06.402Z,9.21
2023-04-26T00:02:17.442Z,9.27
2023-04-26T00:02:28.313Z,9.23
2023-04-26T00:02:39.059Z,9.23
2023-04-26T00:02:49.642Z,9.23
2023-04-26T00:03:00.666Z,9.23
2023-04-26T00:03:11.304Z,9.23
2023-04-26T00:03:21.952Z,9.21
2023-04-26T00:03:33.002Z,9.21
2023-04-26T00:03:43.989Z,9.20
2023-04-26T00:03:54.661Z,9.23
2023-04-26T00:04:05.867Z,9.21
2023-04-26T00:04:16.815Z,9.21
2023-04-26T00:04:27.488Z,9.23
2023-04-26T00:04:38.511Z,9.24
2023-04-26T00:04:49.293Z,9.20
2023-04-26T00:04:59.953Z,9.21
2023-04-26T00:05:10.904Z,9.18
2023-04-26T00:05:21.783Z,9.25
2023-04-26T00:05:32.281Z,9.24
2023-04-26T00:05:43.077Z,9.18
2023-04-26T00:05:54.120Z,9.21
2023-04-26T00:06:05.098Z,9.20
2023-04-26T00:06:15.872Z,9.20
2023-04-26T00:06:26.925Z,9.20
2023-04-26T00:06:37.894Z,9.21
2023-04-26T00:06:48.679Z,9.23
2023-04-26T00:06:59.715Z,9.21
2023-04-26T00:07:10.693Z,9.21
2023-04-26T00:07:21.487Z,9.20
2023-04-26T00:07:32.553Z,9.21
2023-04-26T00:07:43.522Z,9.21
2023-04-26T00:07:54.298Z,9.21
2023-04-26T00:08:05.350Z,9.23
2023-04-26T00:08:16.327Z,9.18
2023-04-26T00:08:27.074Z,9.16
2023-04-26T00:08:38.145Z,9.18
2023-04-26T00:08:49.235Z,9.16
2023-04-26T00:09:00.055Z,9.21
2023-04-26T00:09:11.101Z,9.13
2023-04-26T00:09:22.073Z,9.18
2023-04-26T00:09:32.837Z,9.20
2023-04-26T00:09:43.877Z,9.16
2023-04-26T00:09:54.858Z,9.18
2023-04-26T00:10:05.608Z,9.16
2023-04-26T00:10:16.653Z,9.15
2023-04-26T00:10:27.619Z,9.16
2023-04-26T00:10:38.384Z,9.15
2023-04-26T00:10:49.475Z,9.16
2023-04-26T00:11:00.443Z,9.18
2023-04-26T00:11:11.205Z,9.16
2023-04-26T00:11:22.261Z,9.20
2023-04-26T00:11:33.220Z,9.12
2023-04-26T00:11:43.989Z,9.21
2023-04-26T00:11:55.032Z,9.15
2023-04-26T00:12:05.996Z,9.15
2023-04-26T00:12:16.769Z,9.13
2023-04-26T00:12:27.835Z,9.13
2023-04-26T00:12:38.828Z,9.13
2023-04-26T00:12:49.599Z,9.15
2023-04-26T00:13:00.660Z,9.13
2023-04-26T00:13:11.618Z,9.18
2023-04-26T00:13:22.397Z,9.16
2023-04-26T00:13:33.436Z,9.15
2023-04-26T00:13:44.463Z,9.09
2023-04-26T00:13:55.249Z,9.18
2023-04-26T00:14:06.287Z,9.16
2023-04-26T00:14:17.281Z,9.15
2023-04-26T00:14:28.055Z,9.15
2023-04-26T00:14:39.074Z,9.13
2023-04-26T00:14:50.044Z,9.13
2023-04-26T00:15:00.860Z,9.16
2023-04-26T00:15:11.912Z,9.13
2023-04-26T00:15:22.856Z,9.12
2023-04-26T00:15:33.610Z,9.16
2023-04-26T00:15:44.689Z,9.13
2023-04-26T00:15:55.651Z,9.15
2023-04-26T00:16:06.460Z,9.16
2023-04-26T00:16:17.513Z,9.13
2023-04-26T00:16:28.479Z,9.16
2023-04-26T00:16:39.409Z,9.16
2023-04-26T00:16:50.058Z,9.18
2023-04-26T00:17:00.556Z,9.18
2023-04-26T00:17:11.311Z,9.18
2023-04-26T00:17:22.395Z,9.12
2023-04-26T00:17:33.408Z,9.16
2023-04-26T00:17:44.288Z,9.16
2023-04-26T00:17:54.853Z,9.13
2023-04-26T00:18:05.795Z,9.18
2023-04-26T00:18:16.621Z,9.21
2023-04-26T00:18:27.645Z,9.16
2023-04-26T00:18:38.606Z,9.20
2023-04-26T00:18:49.500Z,9.15
2023-04-26T00:18:59.970Z,9.16
2023-04-26T00:19:10.982Z,9.15
2023-04-26T00:19:21.744Z,9.20
2023-04-26T00:19:32.976Z,9.16
2023-04-26T00:19:43.411Z,9.16
2023-04-26T00:19:54.190Z,9.16
2023-04-26T00:20:05.238Z,9.18
2023-04-26T00:20:16.206Z,9.15
2023-04-26T00:20:26.974Z,9.20
2023-04-26T00:20:38.025Z,9.18
2023-04-26T00:20:48.984Z,9.18
2023-04-26T00:20:59.798Z,9.16
2023-04-26T00:21:10.822Z,9.21
2023-04-26T00:21:21.810Z,9.18
2023-04-26T00:21:32.582Z,9.20
2023-04-26T00:21:43.622Z,9.20
2023-04-26T00:21:54.593Z,9.15
2023-04-26T00:22:05.371Z,9.21
2023-04-26T00:22:16.446Z,9.20
2023-04-26T00:22:27.389Z,9.16
2023-04-26T00:22:38.172Z,9.23
2023-04-26T00:22:49.237Z,9.20
2023-04-26T00:23:00.233Z,9.18
2023-04-26T00:23:10.976Z,9.15
2023-04-26T00:23:22.047Z,9.18
2023-04-26T00:23:33.088Z,9.20
2023-04-26T00:23:43.859Z,9.13
2023-04-26T00:23:54.966Z,9.21
2023-04-26T00:24:05.927Z,9.18
2023-04-26T00:24:16.694Z,9.21
2023-04-26T00:24:27.760Z,9.21
2023-04-26T00:24:38.729Z,9.18
2023-04-26T00:24:49.524Z,9.20
2023-04-26T00:25:00.567Z,9.23
2023-04-26T00:25:11.524Z,9.20
2023-04-26T00:25:22.286Z,9.18
2023-04-26T00:25:33.330Z,9.20
2023-04-26T00:25:44.451Z,9.21
2023-04-26T00:25:55.196Z,9.21
2023-04-26T00:26:06.241Z,9.16
2023-04-26T00:26:17.211Z,9.20
2023-04-26T00:26:27.972Z,9.18
2023-04-26T00:26:39.037Z,9.20
2023-04-26T00:26:50.117Z,9.18
2023-04-26T00:27:00.853Z,9.23
2023-04-26T00:27:11.924Z,9.18
2023-04-26T00:27:22.895Z,9.21
2023-04-26T00:27:33.663Z,9.21
2023-04-26T00:27:44.733Z,9.21
2023-04-26T00:27:55.706Z,9.21
2023-04-26T00:28:06.504Z,9.21
2023-04-26T00:28:17.572Z,9.21
2023-04-26T00:28:28.508Z,9.18
2023-04-26T00:28:39.307Z,9.24
2023-04-26T00:28:50.620Z,9.21
2023-04-26T00:29:01.111Z,9.20
2023-04-26T00:29:11.852Z,9.23
2023-04-26T00:29:22.937Z,9.23
2023-04-26T00:29:33.908Z,9.20
2023-04-26T00:29:44.657Z,9.24
2023-04-26T00:29:55.721Z,9.16
2023-04-26T00:30:06.703Z,9.23
2023-04-26T00:30:17.470Z,9.16
2023-04-26T00:30:28.540Z,9.18
2023-04-26T00:30:39.509Z,9.23
2023-04-26T00:30:50.265Z,9.18
2023-04-26T00:31:01.320Z,9.15
2023-04-26T00:31:12.319Z,9.20
2023-04-26T00:31:23.105Z,9.18
2023-04-26T00:31:33.713Z,9.20
2023-04-26T00:31:44.179Z,9.18
2023-04-26T00:31:55.003Z,9.18
2023-04-26T00:32:05.743Z,9.20
2023-04-26T00:32:16.200Z,9.18
2023-04-26T00:32:26.980Z,9.21
2023-04-26T00:32:38.049Z,9.18
2023-04-26T00:32:49.052Z,9.20
2023-04-26T00:32:59.806Z,9.18
2023-04-26T00:33:10.834Z,9.21
2023-04-26T00:33:21.815Z,9.24
2023-04-26T00:33:32.602Z,9.20
2023-04-26T00:33:43.655Z,9.20
2023-04-26T00:33:54.625Z,9.18
2023-04-26T00:34:05.377Z,9.18
2023-04-26T00:34:16.430Z,9.21
2023-04-26T00:34:27.403Z,9.21
2023-04-26T00:34:38.245Z,9.21
2023-04-26T00:34:49.258Z,9.13
2023-04-26T00:35:00.247Z,9.16
2023-04-26T00:35:11.012Z,9.21
2023-04-26T00:35:22.033Z,9.18
2023-04-26T00:35:33.008Z,9.12
2023-04-26T00:35:43.774Z,9.18
2023-04-26T00:35:54.822Z,9.16
2023-04-26T00:36:05.787Z,9.18
2023-04-26T00:36:16.549Z,9.15
2023-04-26T00:36:27.607Z,9.21
2023-04-26T00:36:38.584Z,9.15
2023-04-26T00:36:49.374Z,9.20
2023-04-26T00:37:00.403Z,9.15
2023-04-26T00:37:11.394Z,9.18
2023-04-26T00:37:22.181Z,9.20
2023-04-26T00:37:33.257Z,9.16
2023-04-26T00:37:44.209Z,9.23
2023-04-26T00:37:54.992Z,9.18
2023-04-26T00:38:06.019Z,9.18
2023-04-26T00:38:16.991Z,9.15
2023-04-26T00:38:27.805Z,9.15
2023-04-26T00:38:38.316Z,9.13
2023-04-26T00:38:49.481Z,9.15
2023-04-26T00:39:00.320Z,9.18
2023-04-26T00:39:11.394Z,9.15
2023-04-26T00:39:22.356Z,9.18
2023-04-26T00:39:33.140Z,9.20
2023-04-26T00:39:44.188Z,9.15
2023-04-26T00:39:55.158Z,9.16
2023-04-26T00:40:05.923Z,9.18
2023-04-26T00:40:16.962Z,9.18
2023-04-26T00:40:27.921Z,9.21
2023-04-26T00:40:38.716Z,9.21
2023-04-26T00:40:49.768Z,9.15
2023-04-26T00:41:00.750Z,9.18
2023-04-26T00:41:11.540Z,9.10
2023-04-26T00:41:22.581Z,9.15
2023-04-26T00:41:33.540Z,9.13
2023-04-26T00:41:44.314Z,9.16
2023-04-26T00:41:55.355Z,9.15
2023-04-26T00:42:06.319Z,9.16
2023-04-26T00:42:17.127Z,9.15
2023-04-26T00:42:28.167Z,9.13
2023-04-26T00:42:39.131Z,9.13
2023-04-26T00:42:49.896Z,9.16
2023-04-26T00:43:01.043Z,9.16
2023-04-26T00:43:11.988Z,9.16
2023-04-26T00:43:22.774Z,9.16
2023-04-26T00:43:33.829Z,9.10
2023-04-26T00:43:44.825Z,9.15
2023-04-26T00:43:55.580Z,9.16
2023-04-26T00:44:06.660Z,9.16
2023-04-26T00:44:17.610Z,9.18
2023-04-26T00:44:28.408Z,9.15
2023-04-26T00:44:39.434Z,9.13
2023-04-26T00:44:50.445Z,9.13
2023-04-26T00:45:01.181Z,9.13
2023-04-26T00:45:12.245Z,9.16
2023-04-26T00:45:23.291Z,9.13
2023-04-26T00:45:34.120Z,9.12
2023-04-26T00:45:45.139Z,9.16
2023-04-26T00:45:56.141Z,9.16
2023-04-26T00:46:06.867Z,9.15
2023-04-26T00:46:17.947Z,9.09
2023-04-26T00:46:28.944Z,9.15
2023-04-26T00:46:39.789Z,9.15
2023-04-26T00:46:50.835Z,9.15
2023-04-26T00:47:01.799Z,9.12
2023-04-26T00:47:12.596Z,9.12
2023-04-26T00:47:23.633Z,9.12
2023-04-26T00:47:34.639Z,9.09
2023-04-26T00:47:45.445Z,9.15
2023-04-26T00:47:56.043Z,9.09
2023-04-26T00:48:06.533Z,9.13
2023-04-26T00:48:17.336Z,9.05
2023-04-26T00:48:28.379Z,9.12
2023-04-26T00:48:39.362Z,9.13
2023-04-26T00:48:50.360Z,9.10
2023-04-26T00:49:00.979Z,9.10
2023-04-26T00:49:11.948Z,9.09
2023-04-26T00:49:22.752Z,9.12
2023-04-26T00:49:33.781Z,9.12
2023-04-26T00:49:44.780Z,9.09
2023-04-26T00:49:55.572Z,9.09
2023-04-26T00:50:06.615Z,9.09
2023-04-26T00:50:17.578Z,9.05
2023-04-26T00:50:28.342Z,9.09
2023-04-26T00:50:39.396Z,9.09
2023-04-26T00:50:50.362Z,9.09
2023-04-26T00:51:01.153Z,9.09
2023-04-26T00:51:12.230Z,9.04
2023-04-26T00:51:23.177Z,9.06
2023-04-26T00:51:33.949Z,9.04
2023-04-26T00:51:44.995Z,9.06
2023-04-26T00:51:55.967Z,9.06
2023-04-26T00:52:06.736Z,9.09
2023-04-26T00:52:17.790Z,9.06
2023-04-26T00:52:28.775Z,8.99
2023-04-26T00:52:39.532Z,9.05
2023-04-26T00:52:50.642Z,9.05
2023-04-26T00:53:01.601Z,9.04
2023-04-26T00:53:12.371Z,9.04
2023-04-26T00:53:23.424Z,9.02
2023-04-26T00:53:34.433Z,9.06
2023-04-26T00:53:45.230Z,9.06
2023-04-26T00:53:55.721Z,9.05
2023-04-26T00:54:06.715Z,9.06
2023-04-26T00:54:17.512Z,9.09
2023-04-26T00:54:28.543Z,9.04
2023-04-26T00:54:39.514Z,9.06
2023-04-26T00:54:50.280Z,9.05
2023-04-26T00:55:01.383Z,9.06
2023-04-26T00:55:12.330Z,9.02
2023-04-26T00:55:23.125Z,9.06
2023-04-26T00:55:34.188Z,9.05
2023-04-26T00:55:45.171Z,9.02
2023-04-26T00:55:55.950Z,9.06
2023-04-26T00:56:07.051Z,9.05
2023-04-26T00:56:17.502Z,9.04
2023-04-26T00:56:28.348Z,9.09
2023-04-26T00:56:39.364Z,9.02
2023-04-26T00:56:50.311Z,8.99
2023-04-26T00:57:01.088Z,9.05
2023-04-26T00:57:12.144Z,9.05
2023-04-26T00:57:23.117Z,9.04
2023-04-26T00:57:33.875Z,9.04
2023-04-26T00:57:44.949Z,9.02
2023-04-26T00:57:55.911Z,9.02
2023-04-26T00:58:06.678Z,9.01
2023-04-26T00:58:17.782Z,9.01
2023-04-26T00:58:28.741Z,9.02
2023-04-26T00:58:39.499Z,9.01
2023-04-26T00:58:50.707Z,9.02
2023-04-26T00:59:01.281Z,9.02
2023-04-26T00:59:12.063Z,9.04
2023-04-26T00:59:23.125Z,9.02
2023-04-26T00:59:34.080Z,8.99
2023-04-26T00:59:44.860Z,9.04
2023-04-26T00:59:55.910Z,8.97
2023-04-26T01:00:06.895Z,8.99
2023-04-26T01:00:17.651Z,9.01
2023-04-26T01:00:28.703Z,8.96
2023-04-26T01:00:39.682Z,9.06
2023-04-26T01:00:50.513Z,9.01
2023-04-26T01:01:01.573Z,9.02
2023-04-26T01:01:12.574Z,9.01
2023-04-26T01:01:23.334Z,9.04
2023-04-26T01:01:34.416Z,9.04
2023-04-26T01:01:44.909Z,9.04
2023-04-26T01:01:55.698Z,9.04
2023-04-26T01:02:06.783Z,8.99
2023-04-26T01:02:17.788Z,8.97
2023-04-26T01:02:28.754Z,9.05
2023-04-26T01:02:39.495Z,9.04
2023-04-26T01:02:50.129Z,9.01
2023-04-26T01:03:01.011Z,9.02
2023-04-26T01:03:12.184Z,8.96
2023-04-26T01:03:22.779Z,8.99
2023-04-26T01:03:33.818Z,9.02
2023-04-26T01:03:44.604Z,9.01
2023-04-26T01:03:55.368Z,8.99
2023-04-26T01:04:06.293Z,9.02
2023-04-26T01:04:17.016Z,8.99
2023-04-26T01:04:27.676Z,8.99
2023-04-26T01:04:38.496Z,9.02
2023-04-26T01:04:48.990Z,8.99
2023-04-26T01:04:59.975Z,9.04
2023-04-26T01:05:10.748Z,9.01
2023-04-26T01:05:21.793Z,8.99
2023-04-26T01:05:32.817Z,9.01
2023-04-26T01:05:43.610Z,8.99
2023-04-26T01:05:54.612Z,8.97
2023-04-26T01:06:05.599Z,8.97
2023-04-26T01:06:16.390Z,9.01
2023-04-26T01:06:27.429Z,8.99
2023-04-26T01:06:38.423Z,8.99
2023-04-26T01:06:49.191Z,9.01
2023-04-26T01:07:00.199Z,8.99
2023-04-26T01:07:11.162Z,8.97
2023-04-26T01:07:21.932Z,9.01
2023-04-26T01:07:33.007Z,8.99
2023-04-26T01:07:43.986Z,9.01
2023-04-26T01:07:54.754Z,9.01
2023-04-26T01:08:05.795Z,9.02
2023-04-26T01:08:16.794Z,8.99
2023-04-26T01:08:27.551Z,8.96
2023-04-26T01:08:38.621Z,9.01
2023-04-26T01:08:49.763Z,8.99
2023-04-26T01:09:00.663Z,9.01
2023-04-26T01:09:11.722Z,9.02
2023-04-26T01:09:22.708Z,8.99
2023-04-26T01:09:33.462Z,9.02
2023-04-26T01:09:44.520Z,9.01
2023-04-26T01:09:55.480Z,8.97
2023-04-26T01:10:06.288Z,9.05
2023-04-26T01:10:17.315Z,9.01
2023-04-26T01:10:28.314Z,9.01
2023-04-26T01:10:39.070Z,8.97
2023-04-26T01:10:50.131Z,9.01
2023-04-26T01:11:01.057Z,9.01
2023-04-26T01:11:11.825Z,9.02
2023-04-26T01:11:22.887Z,9.01
2023-04-26T01:11:33.846Z,9.04
2023-04-26T01:11:44.639Z,9.01
2023-04-26T01:11:55.677Z,8.97
2023-04-26T01:12:06.646Z,9.01
2023-04-26T01:12:17.418Z,8.99
2023-04-26T01:12:28.462Z,8.94
2023-04-26T01:12:39.437Z,9.01
2023-04-26T01:12:50.191Z,8.99
2023-04-26T01:13:01.251Z,8.94
2023-04-26T01:13:12.232Z,8.97
2023-04-26T01:13:22.977Z,9.02
2023-04-26T01:13:34.051Z,8.97
2023-04-26T01:13:45.052Z,8.94
2023-04-26T01:13:55.803Z,8.99
2023-04-26T01:14:06.851Z,8.99
2023-04-26T01:14:17.828Z,8.97
2023-04-26T01:14:28.604Z,9.01
2023-04-26T01:14:39.696Z,9.01
2023-04-26T01:14:50.656Z,8.97
2023-04-26T01:15:01.439Z,9.01
2023-04-26T01:15:12.497Z,8.97
2023-04-26T01:15:23.469Z,9.01
2023-04-26T01:15:34.229Z,9.01
2023-04-26T01:15:45.286Z,8.97
2023-04-26T01:15:56.276Z,8.99
2023-04-26T01:16:07.026Z,9.02
2023-04-26T01:16:18.107Z,8.96
2023-04-26T01:16:29.096Z,9.01
2023-04-26T01:16:39.865Z,8.99
2023-04-26T01:16:50.916Z,8.97
2023-04-26T01:17:01.861Z,8.96
2023-04-26T01:17:12.684Z,9.01
2023-04-26T01:17:23.202Z,8.99
2023-04-26T01:17:34.183Z,8.99
2023-04-26T01:17:44.995Z,8.96
2023-04-26T01:17:55.504Z,8.96
2023-04-26T01:18:06.544Z,8.91
2023-04-26T01:18:17.277Z,9.01
2023-04-26T01:18:28.345Z,8.99
2023-04-26T01:18:39.297Z,8.96
2023-04-26T01:18:50.320Z,8.99
2023-04-26T01:19:01.037Z,8.97
2023-04-26T01:19:11.478Z,8.96
2023-04-26T01:19:22.242Z,8.99
2023-04-26T01:19:33.342Z,8.97
2023-04-26T01:19:44.332Z,8.97
2023-04-26T01:19:55.084Z,9.01
2023-04-26T01:20:06.158Z,8.99
2023-04-26T01:20:17.125Z,8.99
2023-04-26T01:20:27.887Z,8.99
2023-04-26T01:20:38.947Z,8.96
2023-04-26T01:20:49.900Z,8.97
2023-04-26T01:21:03.281Z,9.02
2023-04-26T01:21:11.250Z,8.99
2023-04-26T01:21:22.223Z,8.94
2023-04-26T01:21:33.041Z,9.04
2023-04-26T01:21:44.060Z,9.02
2023-04-26T01:21:55.042Z,9.02
2023-04-26T01:22:05.837Z,8.99
2023-04-26T01:22:16.863Z,8.96
2023-04-26T01:22:27.862Z,8.99
2023-04-26T01:22:38.619Z,9.04
2023-04-26T01:22:49.660Z,8.96
2023-04-26T01:23:00.675Z,8.99
2023-04-26T01:23:11.396Z,9.04
2023-04-26T01:23:22.485Z,8.99
2023-04-26T01:23:33.477Z,9.01
2023-04-26T01:23:44.226Z,8.99
2023-04-26T01:23:55.278Z,9.01
2023-04-26T01:24:06.260Z,9.01
2023-04-26T01:24:17.035Z,9.06
2023-04-26T01:24:28.066Z,8.96
2023-04-26T01:24:39.053Z,8.96
2023-04-26T01:24:49.860Z,9.04
2023-04-26T01:25:00.909Z,9.05
2023-04-26T01:25:11.901Z,9.02
2023-04-26T01:25:22.683Z,9.04
2023-04-26T01:25:33.743Z,8.96
2023-04-26T01:25:44.673Z,8.96
2023-04-26T01:25:55.433Z,9.04
2023-04-26T01:26:06.496Z,8.97
2023-04-26T01:26:17.451Z,9.01
2023-04-26T01:26:28.221Z,9.01
2023-04-26T01:26:39.281Z,8.99
2023-04-26T01:26:50.255Z,8.99
2023-04-26T01:27:01.048Z,9.05
2023-04-26T01:27:12.075Z,9.01
2023-04-26T01:27:23.093Z,9.01
2023-04-26T01:27:33.814Z,9.04
2023-04-26T01:27:44.880Z,9.05
2023-04-26T01:27:55.841Z,8.99
2023-04-26T01:28:06.621Z,9.01
2023-04-26T01:28:17.655Z,8.99
2023-04-26T01:28:28.610Z,9.04
2023-04-26T01:28:39.444Z,8.99
2023-04-26T01:28:50.870Z,9.01
2023-04-26T01:29:01.444Z,9.01
2023-04-26T01:29:12.229Z,9.04
2023-04-26T01:29:23.306Z,8.99
2023-04-26T01:29:34.277Z,8.99
2023-04-26T01:29:45.041Z,9.04
2023-04-26T01:29:56.146Z,8.97
2023-04-26T01:30:07.105Z,8.99
2023-04-26T01:30:17.881Z,8.99
2023-04-26T01:30:28.942Z,9.02
2023-04-26T01:30:39.914Z,8.99
2023-04-26T01:30:50.714Z,9.09
2023-04-26T01:31:01.784Z,8.99
2023-04-26T01:31:12.753Z,8.99
2023-04-26T01:31:23.593Z,9.01
2023-04-26T01:31:34.100Z,9.04
2023-04-26T01:31:45.039Z,9.02
2023-04-26T01:31:55.804Z,9.01
2023-04-26T01:32:06.896Z,9.02
2023-04-26T01:32:17.861Z,8.99
2023-04-26T01:32:28.664Z,8.99
2023-04-26T01:32:39.734Z,9.01
2023-04-26T01:32:50.693Z,9.05
2023-04-26T01:33:01.481Z,9.01
2023-04-26T01:33:12.486Z,8.97
2023-04-26T01:33:23.466Z,9.01
2023-04-26T01:33:34.220Z,9.04
2023-04-26T01:33:45.278Z,9.01
2023-04-26T01:33:56.253Z,8.97
2023-04-26T01:34:07.025Z,9.01
2023-04-26T01:34:18.127Z,8.99
2023-04-26T01:34:29.045Z,9.01
2023-04-26T01:34:39.811Z,9.01
2023-04-26T01:34:50.858Z,9.01
2023-04-26T01:35:01.833Z,8.99
2023-04-26T01:35:12.597Z,9.02
2023-04-26T01:35:23.716Z,9.04
2023-04-26T01:35:34.701Z,9.01
2023-04-26T01:35:45.495Z,9.04
2023-04-26T01:35:56.012Z,9.02
2023-04-26T01:36:06.971Z,9.04
2023-04-26T01:36:17.760Z,9.02
2023-04-26T01:36:28.781Z,9.02
2023-04-26T01:36:39.770Z,9.04
2023-04-26T01:36:50.548Z,9.06
2023-04-26T01:37:01.571Z,8.96
2023-04-26T01:37:12.559Z,9.01
2023-04-26T01:37:23.335Z,8.97
2023-04-26T01:37:34.385Z,9.01
2023-04-26T01:37:45.361Z,9.02
2023-04-26T01:37:56.113Z,9.01
2023-04-26T01:38:07.182Z,8.99
2023-04-26T01:38:18.190Z,9.02
2023-04-26T01:38:28.933Z,9.02
2023-04-26T01:38:40.004Z,9.01
2023-04-26T01:38:51.089Z,8.99
2023-04-26T01:39:01.901Z,9.02
2023-04-26T01:39:12.970Z,9.01
2023-04-26T01:39:23.953Z,8.99
2023-04-26T01:39:34.760Z,9.02
2023-04-26T01:39:45.801Z,9.05
2023-04-26T01:39:56.790Z,8.99
2023-04-26T01:40:07.525Z,9.02
2023-04-26T01:40:18.590Z,9.01
2023-04-26T01:40:29.551Z,8.99
2023-04-26T01:40:40.339Z,8.97
2023-04-26T01:40:51.384Z,8.99
2023-04-26T01:41:02.353Z,9.01
2023-04-26T01:41:13.149Z,9.01
2023-04-26T01:41:24.162Z,8.99
2023-04-26T01:41:35.159Z,8.97
2023-04-26T01:41:46.011Z,9.01
2023-04-26T01:41:57.036Z,8.97
2023-04-26T01:42:08.002Z,8.97
2023-04-26T01:42:18.768Z,8.99
2023-04-26T01:42:29.858Z,9.02
2023-04-26T01:42:40.800Z,8.97
2023-04-26T01:42:51.574Z,9.02
2023-04-26T01:43:02.659Z,8.99
2023-04-26T01:43:13.620Z,8.97
2023-04-26T01:43:24.414Z,9.02
2023-04-26T01:43:34.947Z,8.96
2023-04-26T01:43:45.926Z,8.99
2023-04-26T01:43:56.713Z,9.02
2023-04-26T01:44:07.793Z,9.02
2023-04-26T01:44:18.749Z,9.02
2023-04-26T01:44:29.552Z,8.96
2023-04-26T01:44:40.634Z,8.94
2023-04-26T01:44:51.595Z,8.97
2023-04-26T01:45:02.379Z,8.97
2023-04-26T01:45:13.437Z,8.99
2023-04-26T01:45:24.410Z,8.97
2023-04-26T01:45:35.157Z,8.99
2023-04-26T01:45:46.212Z,8.99
2023-04-26T01:45:57.204Z,8.94
2023-04-26T01:46:07.985Z,8.97
2023-04-26T01:46:19.059Z,8.96
2023-04-26T01:46:30.125Z,8.96
2023-04-26T01:46:40.885Z,8.99
2023-04-26T01:46:52.006Z,8.97
2023-04-26T01:47:02.977Z,8.96
2023-04-26T01:47:13.741Z,8.99
2023-04-26T01:47:24.797Z,8.94
2023-04-26T01:47:35.830Z,8.99
2023-04-26T01:47:46.622Z,8.99
2023-04-26T01:47:57.701Z,9.01
2023-04-26T01:48:08.681Z,9.02
2023-04-26T01:48:19.462Z,8.99
2023-04-26T01:48:30.492Z,9.01
2023-04-26T01:48:41.458Z,9.01
2023-04-26T01:48:52.650Z,9.01
2023-04-26T01:49:03.227Z,8.96
2023-04-26T01:49:14.208Z,8.97
2023-04-26T01:49:24.970Z,8.99
2023-04-26T01:49:36.039Z,9.01
2023-04-26T01:49:47.024Z,8.97
2023-04-26T01:49:57.832Z,8.99
2023-04-26T01:50:08.846Z,8.97
2023-04-26T01:50:19.821Z,8.97
2023-04-26T01:50:30.577Z,9.01
2023-04-26T01:50:41.656Z,8.97
2023-04-26T01:50:52.596Z,8.96
2023-04-26T01:51:03.364Z,8.97
2023-04-26T01:51:14.421Z,9.05
2023-04-26T01:51:25.493Z,8.94
2023-04-26T01:51:36.212Z,9.01
2023-04-26T01:51:47.262Z,9.02
2023-04-26T01:51:58.230Z,8.97
2023-04-26T01:52:09.025Z,8.96
2023-04-26T01:52:20.051Z,9.02
2023-04-26T01:52:31.021Z,8.99
2023-04-26T01:52:41.783Z,8.99
2023-04-26T01:52:52.832Z,9.01
2023-04-26T01:53:03.806Z,8.99
2023-04-26T01:53:14.607Z,9.02
2023-04-26T01:53:25.634Z,8.97
2023-04-26T01:53:36.601Z,8.97
2023-04-26T01:53:47.376Z,9.01
2023-04-26T01:53:58.415Z,9.01
2023-04-26T01:54:09.396Z,8.97
2023-04-26T01:54:20.163Z,8.96
2023-04-26T01:54:31.229Z,9.01
2023-04-26T01:54:42.206Z,8.94
2023-04-26T01:54:52.959Z,9.02
2023-04-26T01:55:04.016Z,8.97
2023-04-26T01:55:14.970Z,8.96
2023-04-26T01:55:25.750Z,8.99
2023-04-26T01:55:36.788Z,8.99
2023-04-26T01:55:47.756Z,9.02
2023-04-26T01:55:58.510Z,9.01
2023-04-26T01:56:09.565Z,8.96
2023-04-26T01:56:20.647Z,8.99
2023-04-26T01:56:31.399Z,8.97
2023-04-26T01:56:42.433Z,8.96
2023-04-26T01:56:53.412Z,8.97
2023-04-26T01:57:04.170Z,9.02
2023-04-26T01:57:15.220Z,8.93
2023-04-26T01:57:26.204Z,8.94
2023-04-26T01:57:36.977Z,8.96
2023-04-26T01:57:48.022Z,8.96
2023-04-26T01:57:58.975Z,8.94
2023-04-26T01:58:09.754Z,8.97
2023-04-26T01:58:20.794Z,8.97
2023-04-26T01:58:31.758Z,8.97
2023-04-26T01:58:42.515Z,9.02
2023-04-26T01:58:53.896Z,8.94
2023-04-26T01:59:04.437Z,8.99
2023-04-26T01:59:15.246Z,8.97
2023-04-26T01:59:26.288Z,8.96
2023-04-26T01:59:37.270Z,8.99
2023-04-26T01:59:48.066Z,8.99
2023-04-26T01:59:59.066Z,8.96
2023-04-26T02:00:10.038Z,9.01
2023-04-26T02:00:20.815Z,8.93
2023-04-26T02:00:31.863Z,8.93
2023-04-26T02:00:42.847Z,8.97
2023-04-26T02:00:53.616Z,8.93
2023-04-26T02:01:04.134Z,8.94
2023-04-26T02:01:15.164Z,9.01
2023-04-26T02:01:25.914Z,8.94
2023-04-26T02:01:36.585Z,8.97
2023-04-26T02:01:47.082Z,8.94
2023-04-26T02:01:57.845Z,8.97
2023-04-26T02:02:08.897Z,8.94
2023-04-26T02:02:19.972Z,8.99
2023-04-26T02:02:30.734Z,9.01
2023-04-26T02:02:41.845Z,8.94
2023-04-26T02:02:52.914Z,8.93
2023-04-26T02:03:03.778Z,8.96
2023-04-26T02:03:14.361Z,8.94
2023-04-26T02:03:24.839Z,8.94
2023-04-26T02:03:35.780Z,8.96
2023-04-26T02:03:46.452Z,8.99
2023-04-26T02:03:56.907Z,8.94
2023-04-26T02:04:07.666Z,8.93
2023-04-26T02:04:18.991Z,8.90
2023-04-26T02:04:29.498Z,8.94
2023-04-26T02:04:40.303Z,8.96
2023-04-26T02:04:51.402Z,8.93
2023-04-26T02:05:02.396Z,8.93
2023-04-26T02:05:13.213Z,8.93
2023-04-26T02:05:23.874Z,8.91
2023-04-26T02:05:34.355Z,8.91
2023-04-26T02:05:45.148Z,8.96
2023-04-26T02:05:56.169Z,8.97
2023-04-26T02:06:07.126Z,8.93
2023-04-26T02:06:17.957Z,8.96
2023-04-26T02:06:28.981Z,8.94
2023-04-26T02:06:39.963Z,8.93
2023-04-26T02:06:50.725Z,8.94
2023-04-26T02:07:01.793Z,8.94
2023-04-26T02:07:12.778Z,8.90
2023-04-26T02:07:23.560Z,8.96
2023-04-26T02:07:34.605Z,8.90
2023-04-26T02:07:45.562Z,8.93
2023-04-26T02:07:56.330Z,8.94
2023-04-26T02:08:07.374Z,8.99
2023-04-26T02:08:18.338Z,8.96
2023-04-26T02:08:29.104Z,8.94
2023-04-26T02:08:40.217Z,8.91
2023-04-26T02:08:51.580Z,8.91
2023-04-26T02:09:01.933Z,8.94
2023-04-26T02:09:12.990Z,8.96
2023-04-26T02:09:24.002Z,8.91
2023-04-26T02:09:34.786Z,8.96
2023-04-26T02:09:45.839Z,8.94
2023-04-26T02:09:56.814Z,8.88
2023-04-26T02:10:07.576Z,8.93
2023-04-26T02:10:18.612Z,8.94
2023-04-26T02:10:29.584Z,8.94
2023-04-26T02:10:40.367Z,8.96
2023-04-26T02:10:51.441Z,8.93
2023-04-26T02:11:02.409Z,8.88
2023-04-26T02:11:13.226Z,8.96
2023-04-26T02:11:24.213Z,8.90
2023-04-26T02:11:35.193Z,8.96
2023-04-26T02:11:45.966Z,8.93
2023-04-26T02:11:57.077Z,8.88
2023-04-26T02:12:08.068Z,8.91
2023-04-26T02:12:18.846Z,8.91
2023-04-26T02:12:29.913Z,8.96
2023-04-26T02:12:40.912Z,8.94
2023-04-26T02:12:51.677Z,8.96
2023-04-26T02:13:02.725Z,8.93
2023-04-26T02:13:13.715Z,8.90
2023-04-26T02:13:24.505Z,8.97
2023-04-26T02:13:35.548Z,8.94
2023-04-26T02:13:46.513Z,8.94
2023-04-26T02:13:57.277Z,8.93
2023-04-26T02:14:08.445Z,8.93
2023-04-26T02:14:19.411Z,8.94
2023-04-26T02:14:30.166Z,8.91
2023-04-26T02:14:41.224Z,8.90
2023-04-26T02:14:52.188Z,8.90
2023-04-26T02:15:02.994Z,8.96
2023-04-26T02:15:14.040Z,8.90
2023-04-26T02:15:25.030Z,8.93
2023-04-26T02:15:35.762Z,8.91
2023-04-26T02:15:46.844Z,8.90
2023-04-26T02:15:57.821Z,8.86
2023-04-26T02:16:08.605Z,8.88
2023-04-26T02:16:19.641Z,8.87
2023-04-26T02:16:30.770Z,8.84
2023-04-26T02:16:41.506Z,8.88
2023-04-26T02:16:52.567Z,8.87
2023-04-26T02:17:03.548Z,8.91
2023-04-26T02:17:14.307Z,8.84
2023-04-26T02:17:25.347Z,8.87
2023-04-26T02:17:36.353Z,8.86
2023-04-26T02:17:47.174Z,8.91
2023-04-26T02:17:57.739Z,8.86
2023-04-26T02:18:08.739Z,8.87
2023-04-26T02:18:19.544Z,8.88
2023-04-26T02:18:30.593Z,8.88
2023-04-26T02:18:41.651Z,8.79
2023-04-26T02:18:52.543Z,8.87
2023-04-26T02:19:03.126Z,8.84
2023-04-26T02:19:14.102Z,8.84
2023-04-26T02:19:24.840Z,8.84
2023-04-26T02:19:35.930Z,8.81
2023-04-26T02:19:46.877Z,8.84
2023-04-26T02:19:57.636Z,8.84
2023-04-26T02:20:08.698Z,8.86
2023-04-26T02:20:19.665Z,8.81
2023-04-26T02:20:30.496Z,8.84
2023-04-26T02:20:41.033Z,8.79
2023-04-26T02:20:51.962Z,8.84
2023-04-26T02:21:02.796Z,8.83
2023-04-26T02:21:13.827Z,8.83
2023-04-26T02:21:24.780Z,8.81
2023-04-26T02:21:35.554Z,8.83
2023-04-26T02:21:46.651Z,8.79
2023-04-26T02:21:57.577Z,8.81
2023-04-26T02:22:08.343Z,8.76
2023-04-26T02:22:19.439Z,8.78
2023-04-26T02:22:30.377Z,8.79
2023-04-26T02:22:41.142Z,8.83
2023-04-26T02:22:52.202Z,8.84
2023-04-26T02:23:03.178Z,8.83
2023-04-26T02:23:13.935Z,8.86
2023-04-26T02:23:25.025Z,8.81
2023-04-26T02:23:35.972Z,8.83
2023-04-26T02:23:46.752Z,8.78
2023-04-26T02:23:57.799Z,8.79
2023-04-26T02:24:08.766Z,8.79
2023-04-26T02:24:19.538Z,8.76
2023-04-26T02:24:33.029Z,8.81
2023-04-26T02:24:41.194Z,8.76
2023-04-26T02:24:51.947Z,8.78
2023-04-26T02:25:03.004Z,8.81
2023-04-26T02:25:14.001Z,8.76